createdAt,value
2023-07-02T00:00:07.460Z,97777.75
2023-07-02T00:02:34.481Z,97770.59
2023-07-02T00:05:01.404Z,97772.91
2023-07-02T00:07:28.290Z,97767.37
2023-07-02T00:09:55.505Z,97769.69
2023-07-02T00:12:22.324Z,97775.22
2023-07-02T00:14:49.115Z,97770.84
2023-07-02T00:17:16.115Z,97772.03
2023-07-02T00:19:43.212Z,97767.63
2023-07-02T00:22:10.445Z,97770.41
2023-07-02T00:24:38.067Z,97771.56
2023-07-02T00:27:05.823Z,97765.22
2023-07-02T00:29:32.609Z,97770.28
2023-07-02T00:31:59.399Z,97776.97
2023-07-02T00:34:27.592Z,97778.94
2023-07-02T00:36:54.493Z,97777.69
2023-07-02T00:39:21.404Z,97776.44
2023-07-02T00:41:48.241Z,97779.53
2023-07-02T00:44:15.434Z,97775.16
2023-07-02T00:46:42.451Z,97784.63
2023-07-02T00:49:10.061Z,97786.59
2023-07-02T00:51:38.701Z,97788.19
2023-07-02T00:54:05.677Z,97783.81
2023-07-02T00:56:32.645Z,97781.72
2023-07-02T00:58:59.996Z,97783.69
2023-07-02T01:01:34.640Z,97776.56
2023-07-02T01:04:03.318Z,97780.47
2023-07-02T01:06:33.075Z,97782.78
2023-07-02T01:09:03.904Z,97785.91
2023-07-02T01:11:39.599Z,97787.88
2023-07-02T01:14:14.972Z,97785.41
2023-07-02T01:16:45.686Z,97793.72
2023-07-02T01:19:19.962Z,97792.47
2023-07-02T01:21:51.030Z,97788.09
2023-07-02T01:24:18.944Z,97783.72
2023-07-02T01:26:46.904Z,97782.91
2023-07-02T01:29:17.907Z,97785.22
2023-07-02T01:31:45.875Z,97776.13
2023-07-02T01:34:13.499Z,97776.94
2023-07-02T01:36:41.231Z,97780.84
2023-07-02T01:39:08.134Z,97782.00
2023-07-02T01:42:09.130Z,97781.19
2023-07-02T01:44:36.472Z,97784.66
2023-07-02T01:47:04.267Z,97777.88
2023-07-02T01:49:31.071Z,97779.84
2023-07-02T01:51:58.580Z,97776.28
2023-07-02T01:54:29.855Z,97779.84
2023-07-02T01:56:57.573Z,97771.91
2023-07-02T01:59:24.867Z,97777.78
2023-07-02T02:01:51.987Z,97773.75
2023-07-02T02:04:19.433Z,97772.94
2023-07-02T02:06:46.568Z,97776.06
2023-07-02T02:09:13.478Z,97771.56
2023-07-02T02:11:46.799Z,97780.66
2023-07-02T02:14:13.715Z,97780.19
2023-07-02T02:16:40.816Z,97781.00
2023-07-02T02:19:07.769Z,97774.22
2023-07-02T02:21:35.032Z,97780.53
2023-07-02T02:24:01.865Z,97775.37
2023-07-02T02:26:28.705Z,97776.53
2023-07-02T02:28:55.532Z,97783.22
2023-07-02T02:31:22.379Z,97778.03
2023-07-02T02:33:49.667Z,97784.34
2023-07-02T02:36:17.919Z,97782.28
2023-07-02T02:38:44.764Z,97788.97
2023-07-02T02:41:11.550Z,97784.59
2023-07-02T02:43:38.415Z,97781.84
2023-07-02T02:46:05.196Z,97790.94
2023-07-02T02:48:31.990Z,97784.59
2023-07-02T02:50:58.810Z,97781.38
2023-07-02T02:53:25.651Z,97777.81
2023-07-02T02:55:52.436Z,97784.03
2023-07-02T02:58:19.219Z,97782.41
2023-07-02T03:00:47.274Z,97780.78
2023-07-02T03:03:15.024Z,97783.09
2023-07-02T03:05:42.035Z,97788.16
2023-07-02T03:08:08.886Z,97786.91
2023-07-02T03:13:02.529Z,97787.16
2023-07-02T03:15:29.339Z,97792.22
2023-07-02T03:17:56.302Z,97795.69
2023-07-02T03:20:23.464Z,97796.03
2023-07-02T03:22:50.246Z,97790.34
2023-07-02T03:25:17.381Z,97800.09
2023-07-02T03:27:44.332Z,97798.03
2023-07-02T03:30:11.401Z,97799.88
2023-07-02T03:32:38.242Z,97799.44
2023-07-02T03:35:05.481Z,97803.69
2023-07-02T03:37:32.307Z,97807.94
2023-07-02T03:39:59.928Z,97814.63
2023-07-02T03:42:26.805Z,97815.78
2023-07-02T03:44:53.757Z,97816.91
2023-07-02T03:47:20.797Z,97814.16
2023-07-02T03:49:48.717Z,97816.59
2023-07-02T03:52:15.516Z,97823.72
2023-07-02T03:54:42.411Z,97824.19
2023-07-02T03:57:09.199Z,97820.25
2023-07-02T03:59:36.387Z,97821.53
2023-07-02T04:02:03.244Z,97819.69
2023-07-02T04:04:30.216Z,97822.56
2023-07-02T04:06:57.355Z,97825.78
2023-07-02T04:09:24.234Z,97832.25
2023-07-02T04:11:51.039Z,97828.03
2023-07-02T04:14:17.911Z,97834.81
2023-07-02T04:16:46.002Z,97838.84
2023-07-02T04:19:13.284Z,97846.78
2023-07-02T04:21:40.186Z,97840.09
2023-07-02T04:24:07.220Z,97855.19
2023-07-02T04:27:04.352Z,97862.66
2023-07-02T04:29:21.816Z,97857.16
2023-07-02T04:31:48.686Z,97851.63
2023-07-02T04:34:15.601Z,97855.53
2023-07-02T04:36:42.418Z,97867.75
2023-07-02T04:39:10.163Z,97868.91
2023-07-02T04:41:36.993Z,97863.38
2023-07-02T04:44:04.164Z,97863.81
2023-07-02T04:46:31.170Z,97869.81
2023-07-02T04:48:58.230Z,97873.03
2023-07-02T04:51:25.111Z,97868.44
2023-07-02T04:53:51.952Z,97877.66
2023-07-02T04:56:18.741Z,97875.00
2023-07-02T04:58:45.597Z,97870.06
2023-07-02T05:01:12.418Z,97878.56
2023-07-02T05:03:39.910Z,97887.13
2023-07-02T05:06:06.857Z,97886.19
2023-07-02T05:08:33.658Z,97884.78
2023-07-02T05:11:00.496Z,97887.44
2023-07-02T05:13:27.450Z,97884.56
2023-07-02T05:15:54.268Z,97888.00
2023-07-02T05:18:21.078Z,97876.81
2023-07-02T05:20:48.078Z,97878.19
2023-07-02T05:23:15.237Z,97888.66
2023-07-02T05:25:42.123Z,97882.84
2023-07-02T05:28:08.938Z,97888.16
2023-07-02T05:30:35.726Z,97888.00
2023-07-02T05:33:02.656Z,97887.06
2023-07-02T05:35:29.558Z,97888.53
2023-07-02T05:37:56.456Z,97888.03
2023-07-02T05:40:23.391Z,97885.59
2023-07-02T05:42:50.262Z,97896.94
2023-07-02T05:45:17.196Z,97897.25
2023-07-02T05:47:44.044Z,97895.91
2023-07-02T05:50:11.007Z,97896.06
2023-07-02T05:52:37.871Z,97898.56
2023-07-02T05:55:05.192Z,97898.69
2023-07-02T05:57:32.042Z,97898.78
2023-07-02T05:59:58.898Z,97898.06
2023-07-02T06:02:25.888Z,97902.44
2023-07-02T06:04:52.881Z,97908.19
2023-07-02T06:07:19.824Z,97910.34
2023-07-02T06:09:46.695Z,97899.44
2023-07-02T06:12:13.649Z,97918.66
2023-07-02T06:14:40.434Z,97923.66
2023-07-02T06:17:08.939Z,97931.06
2023-07-02T06:19:37.708Z,97924.19
2023-07-02T06:22:05.203Z,97934.72
2023-07-02T06:24:32.545Z,97936.50
2023-07-02T06:26:59.479Z,97944.22
2023-07-02T06:29:26.516Z,97946.25
2023-07-02T06:31:53.376Z,97954.22
2023-07-02T06:34:20.151Z,97964.97
2023-07-02T06:36:46.989Z,97968.13
2023-07-02T06:39:13.895Z,97966.87
2023-07-02T06:41:40.707Z,97976.38
2023-07-02T06:44:07.559Z,97976.72
2023-07-02T06:46:34.376Z,97977.06
2023-07-02T06:49:01.215Z,97980.19
2023-07-02T06:51:30.272Z,97983.34
2023-07-02T06:53:57.229Z,97984.88
2023-07-02T06:56:24.046Z,97989.97
2023-07-02T06:58:50.890Z,97985.94
2023-07-02T07:01:17.755Z,97990.59
2023-07-02T07:03:44.727Z,97983.78
2023-07-02T07:06:12.651Z,97994.47
2023-07-02T07:08:40.281Z,98004.31
2023-07-02T07:11:07.085Z,98007.44
2023-07-02T07:13:33.974Z,98006.97
2023-07-02T07:16:00.935Z,98007.69
2023-07-02T07:18:29.705Z,97994.91
2023-07-02T07:20:58.238Z,98002.41
2023-07-02T07:23:25.043Z,98007.53
2023-07-02T07:25:52.244Z,98002.34
2023-07-02T07:28:19.107Z,98008.69
2023-07-02T07:30:46.022Z,98011.91
2023-07-02T07:33:12.921Z,98011.56
2023-07-02T07:35:39.771Z,98013.97
2023-07-02T07:38:06.565Z,98004.13
2023-07-02T07:40:33.478Z,98000.97
2023-07-02T07:43:00.278Z,98011.28
2023-07-02T07:45:27.071Z,98021.56
2023-07-02T07:47:53.952Z,98025.50
2023-07-02T07:50:20.798Z,98019.50
2023-07-02T07:52:48.983Z,98025.06
2023-07-02T07:55:16.014Z,98023.53
2023-07-02T07:57:42.879Z,98020.50
2023-07-02T08:00:13.103Z,98029.38
2023-07-02T08:02:40.338Z,98026.31
2023-07-02T08:05:08.339Z,98034.03
2023-07-02T08:07:35.278Z,98029.47
2023-07-02T08:10:03.741Z,98020.22
2023-07-02T08:12:30.672Z,98003.00
2023-07-02T08:14:57.911Z,98007.62
2023-07-02T08:17:24.790Z,98021.03
2023-07-02T08:19:51.749Z,98008.62
2023-07-02T08:22:18.551Z,98008.88
2023-07-02T08:24:45.409Z,98014.28
2023-07-02T08:27:15.155Z,98008.94
2023-07-02T08:29:42.221Z,98005.63
2023-07-02T08:32:09.347Z,98005.84
2023-07-02T08:34:36.172Z,97997.34
2023-07-02T08:37:03.177Z,98005.16
2023-07-02T08:39:30.059Z,98004.59
2023-07-02T08:41:56.945Z,97999.22
2023-07-02T08:44:23.801Z,97998.19
2023-07-02T08:46:52.256Z,98002.00
2023-07-02T08:49:19.272Z,98004.09
2023-07-02T08:51:47.798Z,98005.81
2023-07-02T08:54:15.529Z,98005.19
2023-07-02T08:56:42.471Z,97998.13
2023-07-02T08:59:09.998Z,97997.50
2023-07-02T09:01:55.235Z,97998.41
2023-07-02T09:04:25.625Z,98006.44
2023-07-02T09:07:12.763Z,97998.56
2023-07-02T09:09:51.408Z,97996.31
2023-07-02T09:12:32.526Z,97995.63
2023-07-02T09:15:07.086Z,97993.72
2023-07-02T09:17:36.265Z,97988.63
2023-07-02T09:20:09.339Z,97986.25
2023-07-02T09:22:37.259Z,97996.22
2023-07-02T09:25:04.576Z,97993.09
2023-07-02T09:27:43.091Z,97990.34
2023-07-02T09:30:13.715Z,97996.81
2023-07-02T09:32:41.381Z,97988.59
2023-07-02T09:35:08.626Z,98004.22
2023-07-02T09:37:35.831Z,98009.91
2023-07-02T09:40:07.779Z,98015.97
2023-07-02T09:42:36.401Z,98010.47
2023-07-02T09:45:04.000Z,98014.56
2023-07-02T09:47:33.645Z,98011.44
2023-07-02T09:50:06.929Z,98009.97
2023-07-02T09:52:34.723Z,98019.59
2023-07-02T09:55:01.958Z,98020.03
2023-07-02T09:57:32.294Z,98016.06
2023-07-02T10:00:03.651Z,98022.13
2023-07-02T10:02:30.615Z,98022.16
2023-07-02T10:04:58.176Z,98014.22
2023-07-02T10:07:30.002Z,98021.91
2023-07-02T10:09:57.807Z,98024.38
2023-07-02T10:12:29.552Z,98026.06
2023-07-02T10:14:58.652Z,98014.91
2023-07-02T10:17:32.458Z,98022.91
2023-07-02T10:20:08.532Z,98020.94
2023-07-02T10:22:45.330Z,98015.34
2023-07-02T10:25:12.244Z,98024.19
2023-07-02T10:27:41.268Z,98021.41
2023-07-02T10:30:10.195Z,98019.44
2023-07-02T10:32:39.392Z,98028.72
2023-07-02T10:35:19.589Z,98025.53
2023-07-02T10:37:46.908Z,98025.53
2023-07-02T10:40:14.263Z,98026.75
2023-07-02T10:42:52.129Z,98024.75
2023-07-02T10:45:20.125Z,98022.31
2023-07-02T10:47:48.067Z,98026.31
2023-07-02T10:50:19.703Z,98027.09
2023-07-02T10:52:47.809Z,98029.03
2023-07-02T10:55:25.566Z,98027.84
2023-07-02T10:58:04.848Z,98028.63
2023-07-02T11:00:32.039Z,98025.44
2023-07-02T11:02:59.614Z,98033.41
2023-07-02T11:05:29.642Z,98039.41
2023-07-02T11:08:09.393Z,98033.81
2023-07-02T11:10:36.433Z,98037.81
2023-07-02T11:13:16.684Z,98023.81
2023-07-02T11:15:44.192Z,98026.63
2023-07-02T11:18:15.745Z,98029.09
2023-07-02T11:20:44.769Z,98029.94
2023-07-02T11:23:23.594Z,98032.34
2023-07-02T11:26:01.220Z,98033.19
2023-07-02T11:28:29.759Z,98023.22
2023-07-02T11:30:57.177Z,98021.63
2023-07-02T11:33:40.623Z,98024.47
2023-07-02T11:36:08.844Z,98017.69
2023-07-02T11:38:37.137Z,98021.69
2023-07-02T11:41:05.023Z,98025.31
2023-07-02T11:43:31.936Z,98024.12
2023-07-02T11:45:59.045Z,98025.31
2023-07-02T11:48:25.815Z,98024.91
2023-07-02T11:50:52.640Z,98028.13
2023-07-02T11:53:19.591Z,98025.72
2023-07-02T11:55:46.677Z,98024.50
2023-07-02T11:58:13.787Z,98015.31
2023-07-02T12:00:40.642Z,98023.31
2023-07-02T12:03:07.800Z,98033.72
2023-07-02T12:05:34.742Z,98031.72
2023-07-02T12:08:03.909Z,98036.13
2023-07-02T12:10:30.797Z,98028.09
2023-07-02T12:12:57.664Z,98019.28
2023-07-02T12:15:24.452Z,98025.28
2023-07-02T12:17:51.351Z,98022.91
2023-07-02T12:20:18.186Z,98025.69
2023-07-02T12:22:45.802Z,98017.28
2023-07-02T12:25:12.767Z,98022.91
2023-07-02T12:27:39.643Z,98016.91
2023-07-02T12:30:07.241Z,98013.28
2023-07-02T12:32:34.260Z,98016.50
2023-07-02T12:35:01.154Z,98012.06
2023-07-02T12:37:28.053Z,98022.47
2023-07-02T12:39:54.879Z,98021.22
2023-07-02T12:42:21.697Z,98024.03
2023-07-02T12:44:48.496Z,98020.44
2023-07-02T12:47:15.384Z,98020.44
2023-07-02T12:49:42.153Z,98011.22
2023-07-02T12:52:09.108Z,98004.41
2023-07-02T12:54:35.936Z,98000.03
2023-07-02T12:57:02.891Z,97994.84
2023-07-02T12:59:29.711Z,98004.47
2023-07-02T13:01:56.820Z,97991.25
2023-07-02T13:04:24.068Z,97988.84
2023-07-02T13:06:51.201Z,97993.25
2023-07-02T13:09:18.496Z,97988.81
2023-07-02T13:11:46.080Z,98002.81
2023-07-02T13:14:13.409Z,97991.22
2023-07-02T13:16:40.825Z,97989.16
2023-07-02T13:19:07.727Z,97999.16
2023-07-02T13:21:34.993Z,97996.72
2023-07-02T13:24:02.509Z,97999.06
2023-07-02T13:26:29.606Z,97997.81
2023-07-02T13:28:56.855Z,97986.19
2023-07-02T13:31:24.776Z,97995.38
2023-07-02T13:33:51.726Z,97994.97
2023-07-02T13:36:18.858Z,97998.50
2023-07-02T13:38:45.922Z,97994.09
2023-07-02T13:41:13.010Z,97986.03
2023-07-02T13:43:40.386Z,97991.22
2023-07-02T13:46:07.795Z,97987.16
2023-07-02T13:48:36.183Z,97990.31
2023-07-02T13:51:03.861Z,97995.53
2023-07-02T13:53:31.263Z,98000.31
2023-07-02T13:55:58.425Z,97991.06
2023-07-02T13:58:30.415Z,97993.03
2023-07-02T14:00:58.121Z,97991.84
2023-07-02T14:03:25.590Z,97993.91
2023-07-02T14:05:52.988Z,97992.75
2023-07-02T14:08:20.337Z,97993.16
2023-07-02T14:10:47.738Z,97978.75
2023-07-02T14:13:15.040Z,97983.16
2023-07-02T14:15:42.249Z,97979.16
2023-07-02T14:18:09.331Z,97981.16
2023-07-02T14:20:36.572Z,97979.94
2023-07-02T14:23:03.905Z,97977.06
2023-07-02T14:25:40.371Z,97975.44
2023-07-02T14:28:09.620Z,97962.12
2023-07-02T14:30:37.524Z,97972.13
2023-07-02T14:33:04.995Z,97973.72
2023-07-02T14:35:32.367Z,97970.81
2023-07-02T14:38:00.019Z,97969.56
2023-07-02T14:40:27.198Z,97973.56
2023-07-02T14:42:54.415Z,97975.16
2023-07-02T14:45:21.602Z,97971.59
2023-07-02T14:47:48.758Z,97967.22
2023-07-02T14:50:18.954Z,97967.25
2023-07-02T14:52:46.438Z,97970.09
2023-07-02T14:55:13.272Z,97975.34
2023-07-02T14:57:40.174Z,97976.19
2023-07-02T15:00:07.817Z,97970.56
2023-07-02T15:02:34.851Z,97969.75
2023-07-02T15:05:02.392Z,97966.16
2023-07-02T15:07:29.335Z,97969.34
2023-07-02T15:09:56.508Z,97966.50
2023-07-02T15:12:23.337Z,97974.50
2023-07-02T15:14:50.215Z,97977.69
2023-07-02T15:17:17.136Z,97975.69
2023-07-02T15:19:44.043Z,97973.28
2023-07-02T15:22:10.846Z,97970.50
2023-07-02T15:24:37.879Z,97977.31
2023-07-02T15:27:05.144Z,97960.50
2023-07-02T15:29:31.915Z,97974.56
2023-07-02T15:31:58.822Z,97975.38
2023-07-02T15:34:25.637Z,97969.75
2023-07-02T15:36:54.978Z,97979.41
2023-07-02T15:39:24.057Z,97979.03
2023-07-02T15:41:51.146Z,97977.00
2023-07-02T15:44:18.047Z,97982.25
2023-07-02T15:46:45.628Z,97987.09
2023-07-02T15:49:15.367Z,97993.56
2023-07-02T15:51:43.479Z,97985.94
2023-07-02T15:54:10.881Z,97983.97
2023-07-02T15:56:37.690Z,97990.41
2023-07-02T15:59:06.547Z,97992.06
2023-07-02T16:01:35.982Z,97988.47
2023-07-02T16:04:03.307Z,97995.75
2023-07-02T16:06:33.897Z,98002.22
2023-07-02T16:09:02.183Z,97995.00
2023-07-02T16:11:30.293Z,98002.63
2023-07-02T16:13:58.550Z,98000.25
2023-07-02T16:16:25.468Z,97993.47
2023-07-02T16:18:52.324Z,97999.94
2023-07-02T16:21:19.347Z,98006.34
2023-07-02T16:23:46.499Z,98011.59
2023-07-02T16:26:13.463Z,98003.59
2023-07-02T16:28:40.894Z,98017.25
2023-07-02T16:31:11.149Z,98008.00
2023-07-02T16:33:38.677Z,98014.47
2023-07-02T16:36:11.107Z,98016.09
2023-07-02T16:38:38.172Z,98020.88
2023-07-02T16:41:07.358Z,98014.09
2023-07-02T16:43:35.021Z,98018.53
2023-07-02T16:46:02.021Z,98023.34
2023-07-02T16:48:29.106Z,98016.09
2023-07-02T16:51:03.253Z,98022.13
2023-07-02T16:53:30.521Z,98030.91
2023-07-02T16:56:02.135Z,98038.53
2023-07-02T16:58:31.228Z,98029.31
2023-07-02T17:01:08.092Z,98038.09
2023-07-02T17:03:35.328Z,98032.91
2023-07-02T17:06:04.265Z,98039.25
2023-07-02T17:08:40.406Z,98039.63
2023-07-02T17:11:09.077Z,98047.22
2023-07-02T17:13:36.281Z,98054.41
2023-07-02T17:16:06.469Z,98055.97
2023-07-02T17:18:34.582Z,98057.53
2023-07-02T17:21:02.279Z,98061.12
2023-07-02T17:23:29.725Z,98054.72
2023-07-02T17:26:07.737Z,98058.69
2023-07-02T17:28:34.992Z,98065.03
2023-07-02T17:31:03.041Z,98064.59
2023-07-02T17:33:30.353Z,98065.37
2023-07-02T17:35:57.573Z,98068.16
2023-07-02T17:38:24.977Z,98061.75
2023-07-02T17:40:52.225Z,98071.28
2023-07-02T17:43:19.677Z,98068.88
2023-07-02T17:45:57.487Z,98064.47
2023-07-02T17:48:28.229Z,98070.81
2023-07-02T17:51:03.107Z,98073.16
2023-07-02T17:53:30.467Z,98077.12
2023-07-02T17:55:58.321Z,98083.50
2023-07-02T17:58:25.747Z,98082.63
2023-07-02T18:00:53.207Z,98090.56
2023-07-02T18:03:20.705Z,98085.31
2023-07-02T18:05:49.521Z,98079.72
2023-07-02T18:08:16.638Z,98087.66
2023-07-02T18:10:48.027Z,98097.19
2023-07-02T18:13:15.454Z,98097.13
2023-07-02T18:15:42.554Z,98090.69
2023-07-02T18:18:10.785Z,98090.25
2023-07-02T18:20:37.895Z,98093.38
2023-07-02T18:23:05.024Z,98109.19
2023-07-02T18:25:32.122Z,98099.88
2023-07-02T18:28:17.406Z,98108.06
2023-07-02T18:30:46.090Z,98108.66
2023-07-02T18:33:13.506Z,98120.88
2023-07-02T18:35:42.532Z,98115.00
2023-07-02T18:38:11.209Z,98133.56
2023-07-02T18:40:39.474Z,98125.47
2023-07-02T18:43:07.776Z,98123.75
2023-07-02T18:45:35.864Z,98129.97
2023-07-02T18:48:04.955Z,98132.63
2023-07-02T18:50:33.220Z,98133.63
2023-07-02T18:53:02.321Z,98128.69
2023-07-02T18:55:30.652Z,98133.78
2023-07-02T18:57:58.675Z,98133.19
2023-07-02T19:00:26.966Z,98138.66
2023-07-02T19:02:55.434Z,98142.94
2023-07-02T19:05:25.454Z,98149.16
2023-07-02T19:07:54.540Z,98138.34
2023-07-02T19:10:22.151Z,98146.16
2023-07-02T19:12:49.516Z,98139.66
2023-07-02T19:15:16.556Z,98146.72
2023-07-02T19:17:44.834Z,98142.09
2023-07-02T19:20:12.613Z,98152.94
2023-07-02T19:22:39.795Z,98149.56
2023-07-02T19:25:07.670Z,98156.50
2023-07-02T19:27:34.961Z,98161.91
2023-07-02T19:30:02.489Z,98162.19
2023-07-02T19:32:33.220Z,98162.47
2023-07-02T19:35:00.509Z,98169.59
2023-07-02T19:37:27.476Z,98177.78
2023-07-02T19:39:54.831Z,98177.66
2023-07-02T19:42:21.704Z,98188.72
2023-07-02T19:44:53.380Z,98201.38
2023-07-02T19:47:20.275Z,98197.72
2023-07-02T19:49:47.377Z,98206.78
2023-07-02T19:52:22.033Z,98204.63
2023-07-02T19:54:49.396Z,98206.50
2023-07-02T19:57:17.628Z,98213.50
2023-07-02T19:59:48.049Z,98212.16
2023-07-02T20:02:19.494Z,98210.09
2023-07-02T20:04:58.405Z,98217.06
2023-07-02T20:07:28.769Z,98213.75
2023-07-02T20:09:57.144Z,98221.56
2023-07-02T20:12:29.345Z,98230.88
2023-07-02T20:15:01.205Z,98228.34
2023-07-02T20:17:30.389Z,98231.03
2023-07-02T20:19:59.888Z,98236.03
2023-07-02T20:22:27.630Z,98242.66
2023-07-02T20:24:58.115Z,98244.09
2023-07-02T20:27:31.663Z,98247.47
2023-07-02T20:29:58.650Z,98243.78
2023-07-02T20:32:25.808Z,98248.41
2023-07-02T20:34:52.645Z,98250.63
2023-07-02T20:37:22.328Z,98250.41
2023-07-02T20:39:49.368Z,98252.91
2023-07-02T20:42:19.523Z,98251.19
2023-07-02T20:44:53.351Z,98257.44
2023-07-02T20:47:25.021Z,98249.34
2023-07-02T20:49:53.222Z,98252.00
2023-07-02T20:52:25.081Z,98261.03
2023-07-02T20:54:56.313Z,98258.50
2023-07-02T20:57:23.806Z,98270.66
2023-07-02T20:59:51.533Z,98272.19
2023-07-02T21:02:20.350Z,98272.84
2023-07-02T21:04:48.573Z,98272.28
2023-07-02T21:07:15.429Z,98277.03
2023-07-02T21:09:42.320Z,98278.19
2023-07-02T21:12:09.739Z,98280.47
2023-07-02T21:14:36.785Z,98289.50
2023-07-02T21:17:03.905Z,98289.03
2023-07-02T21:19:31.264Z,98290.19
2023-07-02T21:21:58.078Z,98292.50
2023-07-02T21:24:24.921Z,98296.44
2023-07-02T21:26:51.727Z,98298.75
2023-07-02T21:29:18.524Z,98293.91
2023-07-02T21:31:45.451Z,98298.50
2023-07-02T21:34:12.376Z,98297.59
2023-07-02T21:36:39.184Z,98308.56
2023-07-02T21:39:05.985Z,98306.81
2023-07-02T21:41:33.351Z,98316.66
2023-07-02T21:44:00.340Z,98310.63
2023-07-02T21:46:27.583Z,98319.16
2023-07-02T21:48:54.408Z,98314.78
2023-07-02T21:51:22.874Z,98315.81
2023-07-02T21:53:50.468Z,98319.75
2023-07-02T21:56:18.879Z,98322.50
2023-07-02T21:58:49.260Z,98324.69
2023-07-02T22:01:16.697Z,98328.16
2023-07-02T22:03:43.709Z,98328.84
2023-07-02T22:06:10.740Z,98326.44
2023-07-02T22:08:38.594Z,98329.41
2023-07-02T22:11:21.732Z,98331.34
2023-07-02T22:13:50.395Z,98328.47
2023-07-02T22:16:17.177Z,98333.06
2023-07-02T22:18:44.126Z,98331.78
2023-07-02T22:21:10.993Z,98328.88
2023-07-02T22:23:38.621Z,98329.22
2023-07-02T22:26:05.701Z,98337.06
2023-07-02T22:28:32.703Z,98332.53
2023-07-02T22:30:59.719Z,98339.22
2023-07-02T22:33:26.722Z,98337.16
2023-07-02T22:35:53.507Z,98333.91
2023-07-02T22:38:20.340Z,98337.03
2023-07-02T22:40:47.199Z,98332.97
2023-07-02T22:43:14.178Z,98332.84
2023-07-02T22:45:41.220Z,98323.28
2023-07-02T22:48:08.078Z,98319.22
2023-07-02T22:50:35.233Z,98320.72
2023-07-02T22:53:02.107Z,98313.88
2023-07-02T22:55:33.240Z,98324.16
2023-07-02T22:58:02.351Z,98324.81
2023-07-02T23:00:29.308Z,98321.59
2023-07-02T23:02:56.294Z,98325.50
2023-07-02T23:05:23.913Z,98331.37
2023-07-02T23:07:51.114Z,98313.50
2023-07-02T23:10:18.218Z,98313.84
2023-07-02T23:12:48.404Z,98315.81
2023-07-02T23:15:17.372Z,98316.50
2023-07-02T23:17:46.743Z,98312.09
2023-07-02T23:20:15.695Z,98316.37
2023-07-02T23:22:43.604Z,98317.81
2023-07-02T23:25:19.943Z,98318.97
2023-07-02T23:27:47.965Z,98321.28
2023-07-02T23:30:18.411Z,98323.91
2023-07-02T23:32:46.906Z,98322.63
2023-07-02T23:35:16.120Z,98316.97
2023-07-02T23:37:46.086Z,98320.38
2023-07-02T23:40:17.142Z,98312.41
2023-07-02T23:42:45.269Z,98318.63
2023-07-02T23:45:14.124Z,98313.75
2023-07-02T23:47:42.222Z,98317.19
2023-07-02T23:50:13.194Z,98309.09
2023-07-02T23:52:40.309Z,98312.53
2023-07-02T23:55:09.858Z,98309.97
2023-07-02T23:57:37.276Z,98308.72
